Time;durP1;ratioP1;P1;durP2;ratioP2;P2;SDS_P1;SDS_P2;PMS_P1;PMS_P2;Temp;Humidity;BMP_temperature;BMP_pressure;BME280_temperature;BME280_humidity;BME280_pressure;Samples;Min_cycle;Max_cycle;Signal;HPM_P1;HPM_P2
2022/06/25 00:21:08;;;;;;;26.10;23.70;;;16.80;99.90;;;;;;5011273;28;20538;-74
2022/06/25 00:23:35;;;;;;;25.65;23.25;;;16.60;99.90;;;;;;5015865;28;20599;-75
2022/06/25 00:26:02;;;;;;;26.80;23.77;;;16.60;99.90;;;;;;5021735;28;20106;-76
2022/06/25 00:28:28;;;;;;;26.80;24.30;;;16.80;99.90;;;;;;5039320;28;20052;-76
2022/06/25 00:30:55;;;;;;;26.23;23.88;;;16.80;99.90;;;;;;4995739;28;20455;-74
2022/06/25 00:33:22;;;;;;;24.25;22.13;;;16.80;99.90;;;;;;5012560;28;20081;-76
2022/06/25 00:35:49;;;;;;;23.35;21.23;;;16.90;99.90;;;;;;5004068;28;20047;-76
2022/06/25 00:38:15;;;;;;;20.60;18.65;;;16.80;99.90;;;;;;5021836;28;20596;-76
2022/06/25 00:40:42;;;;;;;20.52;18.67;;;16.90;99.90;;;;;;5026510;28;20056;-74
2022/06/25 00:43:09;;;;;;;20.95;19.25;;;16.90;99.90;;;;;;5061966;22;20036;-76
2022/06/25 00:45:35;;;;;;;19.70;18.13;;;16.90;99.90;;;;;;5047518;28;20048;-77
2022/06/25 00:48:03;;;;;;;21.60;19.60;;;16.90;99.90;;;;;;5047775;28;20464;-77
2022/06/25 00:50:29;;;;;;;21.13;19.42;;;17.00;99.90;;;;;;5046760;28;20044;-78
2022/06/25 00:52:58;;;;;;;22.95;20.92;;;17.00;99.90;;;;;;5041601;28;20631;-77
2022/06/25 00:55:30;;;;;;;20.52;18.52;;;17.00;99.90;;;;;;5036430;28;20043;-78
2022/06/25 00:58:02;;;;;;;21.02;19.33;;;17.00;99.90;;;;;;5046546;28;20147;-77
2022/06/25 01:00:28;;;;;;;21.33;19.40;;;17.00;99.90;;;;;;5046190;22;20556;-76
2022/06/25 01:02:55;;;;;;;23.52;21.50;;;17.00;99.90;;;;;;5048522;28;20636;-75
2022/06/25 01:05:22;;;;;;;22.27;20.20;;;17.00;99.90;;;;;;5017735;28;20106;-77
2022/06/25 01:07:51;;;;;;;22.98;21.10;;;16.90;99.90;;;;;;5007938;28;20677;-78
2022/06/25 01:10:17;;;;;;;24.63;21.92;;;16.90;99.90;;;;;;5007352;28;20057;-78
2022/06/25 01:12:44;;;;;;;23.85;21.50;;;17.00;99.90;;;;;;5006793;28;20100;-77
2022/06/25 01:15:19;;;;;;;23.30;20.15;;;17.10;99.90;;;;;;5001181;28;20066;-77
2022/06/25 01:17:47;;;;;;;;;;;17.00;99.90;;;;;;5001836;28;20498;-77
2022/06/25 01:20:16;;;;;;;21.48;18.20;;;17.00;99.90;;;;;;5001197;28;19921;-77
2022/06/25 01:22:43;;;;;;;20.17;18.27;;;16.90;99.90;;;;;;4992392;28;20057;-78
2022/06/25 01:25:11;;;;;;;20.08;18.20;;;16.70;99.90;;;;;;5005887;28;20065;-78
2022/06/25 01:27:39;;;;;;;21.63;19.45;;;16.60;99.90;;;;;;5004577;28;20053;-77
2022/06/25 01:30:09;;;;;;;20.38;18.20;;;16.50;99.90;;;;;;5018341;28;20049;-78
2022/06/25 01:32:36;;;;;;;21.10;19.00;;;16.40;99.90;;;;;;5004903;28;20557;-78
2022/06/25 01:35:04;;;;;;;22.40;20.50;;;16.40;99.90;;;;;;5025188;28;20045;-77
2022/06/25 01:37:34;;;;;;;23.25;21.02;;;16.50;99.90;;;;;;5008885;28;20050;-78
2022/06/25 01:40:02;;;;;;;25.45;22.88;;;16.40;99.90;;;;;;5001618;28;20112;-77
2022/06/25 01:45:14;;;;;;;20.92;18.85;;;16.40;99.90;;;;;;5023264;28;20064;-77
2022/06/25 01:47:41;;;;;;;21.02;19.17;;;16.40;99.90;;;;;;4983838;28;20054;-77
2022/06/25 01:50:10;;;;;;;20.38;18.50;;;16.40;99.90;;;;;;4992341;28;20057;-77
2022/06/25 01:52:36;;;;;;;20.30;18.40;;;16.30;99.90;;;;;;5022929;28;20060;-77
2022/06/25 01:55:05;;;;;;;20.05;18.15;;;16.10;99.90;;;;;;5006849;28;20045;-77
2022/06/25 01:57:36;;;;;;;18.35;16.17;;;16.10;99.90;;;;;;5004986;28;20148;-77
2022/06/25 02:00:10;;;;;;;16.77;15.35;;;16.00;99.90;;;;;;5004203;28;20061;-77
2022/06/25 02:02:42;;;;;;;17.08;15.63;;;15.90;99.90;;;;;;5011794;28;20057;-78
2022/06/25 02:05:11;;;;;;;18.65;16.63;;;15.90;99.90;;;;;;5045378;28;20064;-77
2022/06/25 02:07:39;;;;;;;15.95;14.45;;;16.00;99.90;;;;;;5009188;28;20052;-78
2022/06/25 02:10:07;;;;;;;16.50;14.95;;;15.70;99.90;;;;;;5047288;28;20033;-77
2022/06/25 02:12:34;;;;;;;18.80;14.93;;;15.60;99.90;;;;;;5027231;28;20049;-77
2022/06/25 02:15:02;;;;;;;20.30;16.63;;;15.60;99.90;;;;;;5027295;28;20060;-77
2022/06/25 02:17:28;;;;;;;19.05;15.90;;;15.50;99.90;;;;;;5005491;28;20071;-78
2022/06/25 02:19:57;;;;;;;16.10;14.75;;;15.40;99.90;;;;;;5007066;28;20532;-77
2022/06/25 02:22:24;;;;;;;17.10;15.50;;;15.40;99.90;;;;;;5024004;28;20244;-77
2022/06/25 02:24:53;;;;;;;17.17;15.73;;;15.40;99.90;;;;;;5045543;28;20044;-77
2022/06/25 02:27:19;;;;;;;18.70;16.95;;;15.30;99.90;;;;;;5009396;28;20473;-77
2022/06/25 02:29:46;;;;;;;16.08;14.73;;;15.40;99.90;;;;;;5024709;28;20045;-76
2022/06/25 02:32:13;;;;;;;16.27;14.88;;;15.40;99.90;;;;;;5025931;28;20040;-77
2022/06/25 02:34:40;;;;;;;18.00;14.77;;;15.40;99.90;;;;;;5024294;28;20045;-77
2022/06/25 02:37:07;;;;;;;14.10;12.65;;;15.30;99.90;;;;;;5025661;28;20045;-77
2022/06/25 02:39:34;;;;;;;16.90;14.25;;;15.20;99.90;;;;;;5017173;28;20412;-76
2022/06/25 02:42:01;;;;;;;15.90;14.27;;;15.20;99.90;;;;;;5001521;28;20051;-76
2022/06/25 02:44:28;;;;;;;15.77;14.18;;;15.10;99.90;;;;;;5030091;28;20253;-76
2022/06/25 02:46:57;;;;;;;14.95;13.45;;;15.00;99.90;;;;;;5020398;28;20049;-77
2022/06/25 02:49:31;;;;;;;14.38;12.88;;;15.00;99.90;;;;;;4999930;28;20144;-76
2022/06/25 02:51:57;;;;;;;14.00;12.60;;;15.00;99.90;;;;;;5003289;28;20052;-76
2022/06/25 02:54:24;;;;;;;14.85;13.55;;;15.00;99.90;;;;;;5011778;28;20558;-75
2022/06/25 02:59:52;;;;;;;15.85;14.40;;;14.90;99.90;;;;;;4978324;28;20136;-76
2022/06/25 03:02:19;;;;;;;17.52;15.90;;;14.70;99.90;;;;;;5013211;28;20103;-75
2022/06/25 03:04:48;;;;;;;16.52;14.82;;;14.70;99.90;;;;;;5016889;28;20055;-76
2022/06/25 03:07:15;;;;;;;14.80;13.40;;;14.70;99.90;;;;;;5001489;28;20513;-76
2022/06/25 03:09:42;;;;;;;16.45;15.02;;;14.70;99.90;;;;;;5035308;28;20413;-76
2022/06/25 03:12:09;;;;;;;16.30;14.68;;;14.70;99.90;;;;;;5018652;28;20390;-76
2022/06/25 03:14:39;;;;;;;16.27;14.98;;;14.70;99.90;;;;;;5016643;28;20424;-76
2022/06/25 03:17:07;;;;;;;16.27;14.68;;;14.60;99.90;;;;;;5013124;28;20041;-76
2022/06/25 03:19:52;;;;;;;16.40;14.85;;;14.60;99.90;;;;;;5015909;28;20401;-76
2022/06/25 03:22:32;;;;;;;16.98;15.52;;;14.60;99.90;;;;;;5029031;28;20053;-76
2022/06/25 03:24:58;;;;;;;16.80;15.35;;;14.70;99.90;;;;;;5017408;28;20060;-76
2022/06/25 03:27:26;;;;;;;15.57;14.23;;;14.50;99.90;;;;;;4999787;28;20156;-76
2022/06/25 03:30:04;;;;;;;15.75;14.23;;;14.50;99.90;;;;;;4997287;28;20041;-76
2022/06/25 03:32:32;;;;;;;14.90;13.40;;;14.60;99.90;;;;;;4998953;28;20037;-76
2022/06/25 03:35:31;;;;;;;15.52;14.15;;;14.40;99.90;;;;;;4997662;28;20172;-76
2022/06/25 03:38:07;;;;;;;14.35;13.05;;;14.40;99.90;;;;;;5000460;28;20435;-76
2022/06/25 03:40:34;;;;;;;14.93;13.38;;;14.30;99.90;;;;;;4996908;28;20130;-76
2022/06/25 03:43:02;;;;;;;16.65;15.15;;;14.20;99.90;;;;;;4993654;28;20034;-76
2022/06/25 03:45:32;;;;;;;17.15;15.55;;;14.20;99.90;;;;;;5002199;28;20170;-76
2022/06/25 03:47:59;;;;;;;19.80;15.32;;;14.30;99.90;;;;;;5017430;28;20250;-76
2022/06/25 03:50:30;;;;;;;16.95;15.40;;;14.30;99.90;;;;;;5015625;28;20217;-76
2022/06/25 03:52:57;;;;;;;15.88;14.25;;;14.20;99.90;;;;;;5017469;28;20252;-76
2022/06/25 03:55:24;;;;;;;16.48;14.77;;;14.30;99.90;;;;;;5015638;28;20483;-76
2022/06/25 03:58:11;;;;;;;16.23;14.73;;;14.40;99.90;;;;;;4999946;28;20056;-76
2022/06/25 04:00:38;;;;;;;17.90;16.10;;;14.30;99.90;;;;;;5015483;28;20044;-76
2022/06/25 04:03:04;;;;;;;16.15;14.48;;;14.40;99.90;;;;;;5016876;28;20433;-76
2022/06/25 04:05:50;;;;;;;16.20;14.63;;;14.40;99.90;;;;;;5018454;28;20048;-76
2022/06/25 04:08:33;;;;;;;15.52;14.13;;;14.40;99.90;;;;;;5031756;28;20118;-76
2022/06/25 04:11:02;;;;;;;18.25;16.23;;;14.50;99.90;;;;;;5016727;28;20056;-77
2022/06/25 04:13:29;;;;;;;16.50;14.13;;;14.60;99.90;;;;;;5015136;28;20151;-76
2022/06/25 04:15:56;;;;;;;17.58;14.88;;;14.60;99.90;;;;;;5027489;28;20198;-76
2022/06/25 04:18:27;;;;;;;26.05;15.85;;;14.60;99.90;;;;;;5012789;28;20056;-77
2022/06/25 04:20:54;;;;;;;16.92;15.30;;;14.60;99.90;;;;;;5017676;28;20052;-77
2022/06/25 04:23:22;;;;;;;18.98;17.08;;;14.50;99.90;;;;;;5018211;28;20060;-76
2022/06/25 04:25:50;;;;;;;16.77;15.10;;;14.60;99.90;;;;;;5017514;28;20040;-76
2022/06/25 04:31:18;;;;;;;17.50;15.82;;;14.90;99.90;;;;;;5016395;28;20049;-76
2022/06/25 04:33:46;;;;;;;14.93;13.63;;;14.90;99.90;;;;;;5000599;28;20053;-76
2022/06/25 04:36:13;;;;;;;13.68;12.10;;;15.40;99.90;;;;;;5017958;28;20051;-76
2022/06/25 04:38:46;;;;;;;14.38;13.25;;;15.50;99.90;;;;;;5016622;28;20205;-76
2022/06/25 04:41:13;;;;;;;15.43;14.27;;;15.60;99.90;;;;;;5016274;28;20076;-75
2022/06/25 04:43:39;;;;;;;16.35;15.02;;;15.70;99.90;;;;;;5032017;28;20053;-76
2022/06/25 04:46:12;;;;;;;16.17;15.02;;;15.70;99.90;;;;;;5016632;28;20422;-77
2022/06/25 04:48:40;;;;;;;16.33;14.98;;;15.80;99.90;;;;;;5013173;28;20393;-76
2022/06/25 04:51:20;;;;;;;15.80;14.52;;;15.80;99.90;;;;;;5014147;28;20626;-76
2022/06/25 04:53:56;;;;;;;15.70;14.60;;;16.00;99.90;;;;;;5025087;28;20072;-76
2022/06/25 04:56:31;;;;;;;15.82;14.68;;;16.10;99.90;;;;;;5028954;28;20087;-75
2022/06/25 04:59:00;;;;;;;16.35;15.32;;;16.20;99.90;;;;;;5002513;28;20147;-77
2022/06/25 05:01:51;;;;;;;16.73;15.40;;;16.50;99.90;;;;;;5053988;28;20064;-75
2022/06/25 05:04:30;;;;;;;17.45;16.20;;;16.70;99.90;;;;;;5016909;28;20056;-76
2022/06/25 05:06:58;;;;;;;18.10;17.00;;;17.10;99.90;;;;;;5016718;28;20060;-77
2022/06/25 05:09:26;;;;;;;19.20;17.85;;;17.40;99.90;;;;;;5002990;28;20049;-77
2022/06/25 05:11:53;;;;;;;19.45;18.27;;;17.80;99.90;;;;;;5022134;28;20167;-76
2022/06/25 05:14:20;;;;;;;20.65;18.90;;;18.50;99.90;;;;;;5021206;28;20147;-76
2022/06/25 05:16:47;;;;;;;22.15;20.55;;;18.90;99.90;;;;;;5020603;28;20506;-76
2022/06/25 05:19:14;;;;;;;21.98;20.55;;;19.40;99.90;;;;;;5046287;28;20057;-76
2022/06/25 05:21:41;;;;;;;22.70;21.27;;;19.90;99.90;;;;;;5042166;28;20226;-77
2022/06/25 05:24:09;;;;;;;22.48;20.98;;;20.40;99.90;;;;;;5021891;28;20132;-75
2022/06/25 05:26:36;;;;;;;21.83;20.38;;;20.60;99.90;;;;;;5021295;28;20053;-76
2022/06/25 05:29:02;;;;;;;22.77;21.25;;;20.60;99.90;;;;;;5011921;28;20091;-76
2022/06/25 05:31:29;;;;;;;22.88;21.35;;;20.70;99.90;;;;;;4999065;28;20041;-75
2022/06/25 05:33:56;;;;;;;22.30;20.92;;;20.90;99.90;;;;;;5011838;28;20089;-77
2022/06/25 05:36:23;;;;;;;22.05;20.65;;;21.20;99.90;;;;;;5029154;28;20247;-76
2022/06/25 05:38:50;;;;;;;21.33;20.25;;;21.50;99.90;;;;;;5038520;28;20074;-76
2022/06/25 05:41:17;;;;;;;21.63;20.30;;;21.60;99.90;;;;;;5044741;28;20049;-75
2022/06/25 05:43:44;;;;;;;21.73;20.35;;;21.70;99.90;;;;;;5019073;28;20053;-76
2022/06/25 05:46:11;;;;;;;20.90;19.67;;;21.60;99.90;;;;;;5020572;28;20053;-77
2022/06/25 05:48:38;;;;;;;21.95;20.58;;;21.70;99.90;;;;;;5020301;28;20064;-76
2022/06/25 05:51:05;;;;;;;21.70;20.45;;;21.90;99.90;;;;;;5037031;28;20053;-77
2022/06/25 05:53:32;;;;;;;21.17;19.75;;;21.80;99.90;;;;;;5036409;28;20116;-78
2022/06/25 05:55:59;;;;;;;21.88;20.40;;;21.80;99.90;;;;;;5027025;28;20061;-77
2022/06/25 05:58:26;;;;;;;22.45;21.15;;;21.80;99.90;;;;;;5018568;28;20133;-76
2022/06/25 06:00:52;;;;;;;21.42;20.05;;;21.80;99.90;;;;;;5038210;28;20065;-75
2022/06/25 06:03:19;;;;;;;22.48;20.67;;;22.00;99.90;;;;;;5021418;28;20342;-77
2022/06/25 06:05:46;;;;;;;21.33;19.92;;;22.20;99.90;;;;;;5019959;28;20049;-77
2022/06/25 06:08:13;;;;;;;21.48;20.27;;;22.30;99.90;;;;;;5019264;28;20110;-76
2022/06/25 06:10:40;;;;;;;22.00;20.90;;;22.30;99.90;;;;;;5037201;28;20044;-76
2022/06/25 06:13:07;;;;;;;21.10;20.00;;;22.00;99.90;;;;;;5020621;28;20084;-76
2022/06/25 06:15:33;;;;;;;21.17;20.08;;;22.20;99.90;;;;;;5038006;28;20454;-75
2022/06/25 06:18:00;;;;;;;22.52;21.02;;;22.20;99.90;;;;;;5041217;28;20326;-77
2022/06/25 06:20:27;;;;;;;22.92;21.63;;;22.20;99.90;;;;;;5023006;28;20064;-79
2022/06/25 06:22:54;;;;;;;21.92;20.30;;;22.40;99.90;;;;;;5023129;28;20487;-76
2022/06/25 06:25:21;;;;;;;21.35;20.02;;;22.40;99.90;;;;;;5028728;28;20485;-77
2022/06/25 06:27:47;;;;;;;21.88;20.30;;;22.20;99.90;;;;;;5042479;28;20141;-77
2022/06/25 06:30:14;;;;;;;20.88;19.75;;;22.00;99.90;;;;;;5040394;28;20060;-75
2022/06/25 06:32:41;;;;;;;20.42;19.42;;;21.90;99.90;;;;;;5054481;28;20228;-75
2022/06/25 06:35:08;;;;;;;20.88;19.77;;;21.90;99.90;;;;;;5045676;28;20489;-80
2022/06/25 06:37:36;;;;;;;21.08;19.98;;;21.90;99.90;;;;;;5006938;28;20621;-77
2022/06/25 06:40:05;;;;;;;20.20;19.20;;;22.10;99.90;;;;;;5038867;28;20040;-74
2022/06/25 06:42:32;;;;;;;21.75;20.55;;;22.40;99.90;;;;;;5041603;22;20060;-76
2022/06/25 06:44:58;;;;;;;21.85;20.55;;;22.30;99.90;;;;;;5021113;28;20065;-76
2022/06/25 06:47:25;;;;;;;20.42;19.27;;;22.50;99.90;;;;;;5026085;28;20046;-76
2022/06/25 06:49:52;;;;;;;19.52;18.52;;;22.70;99.90;;;;;;5027762;28;20041;-76
2022/06/25 06:52:19;;;;;;;19.88;18.77;;;22.90;99.90;;;;;;5026465;28;20091;-76
2022/06/25 06:54:46;;;;;;;20.13;18.88;;;23.10;99.90;;;;;;5017901;28;20557;-76
2022/06/25 06:57:12;;;;;;;19.08;18.17;;;23.40;99.90;;;;;;5005005;28;20152;-76
2022/06/25 06:59:39;;;;;;;20.33;18.83;;;23.50;99.90;;;;;;5007029;28;20042;-76
2022/06/25 07:02:06;;;;;;;20.05;19.02;;;23.40;99.90;;;;;;5004298;22;20073;-74
2022/06/25 07:04:33;;;;;;;20.02;18.88;;;23.30;99.90;;;;;;4984504;28;20057;-74
2022/06/25 07:07:00;;;;;;;19.38;18.48;;;23.60;99.90;;;;;;4986257;28;20042;-74
2022/06/25 07:09:27;;;;;;;19.60;18.40;;;23.90;99.90;;;;;;4984274;28;20073;-74
2022/06/25 07:11:54;;;;;;;19.77;18.55;;;23.90;99.90;;;;;;4984217;28;20050;-75
2022/06/25 07:14:20;;;;;;;20.73;19.42;;;23.90;99.90;;;;;;4981734;28;20508;-75
2022/06/25 07:16:48;;;;;;;21.35;20.15;;;24.00;99.90;;;;;;4984307;28;20049;-74
2022/06/25 07:19:15;;;;;;;20.45;19.25;;;23.90;99.90;;;;;;4998915;28;20137;-74
2022/06/25 07:21:42;;;;;;;20.48;19.17;;;23.70;99.90;;;;;;4982882;28;20046;-75
2022/06/25 07:24:09;;;;;;;20.25;19.08;;;23.70;99.90;;;;;;4983528;28;20058;-74
2022/06/25 07:26:35;;;;;;;20.55;19.38;;;23.90;99.90;;;;;;4966862;28;20344;-74
2022/06/25 07:29:02;;;;;;;20.17;18.73;;;23.90;99.90;;;;;;4985335;28;20061;-74
2022/06/25 07:31:29;;;;;;;20.02;18.92;;;23.80;99.90;;;;;;4984852;28;20078;-74
2022/06/25 07:33:56;;;;;;;19.98;18.83;;;23.70;99.90;;;;;;4985099;28;20050;-75
2022/06/25 07:36:22;;;;;;;20.95;19.73;;;23.90;99.90;;;;;;4983301;28;20042;-75
2022/06/25 07:38:49;;;;;;;19.65;18.52;;;24.20;99.90;;;;;;4986031;28;20058;-74
2022/06/25 07:41:16;;;;;;;20.55;19.23;;;24.20;99.90;;;;;;4983589;28;20081;-74
2022/06/25 07:43:43;;;;;;;20.42;19.30;;;24.20;99.90;;;;;;4983306;28;20551;-74
2022/06/25 07:46:09;;;;;;;19.95;18.75;;;24.20;99.90;;;;;;4983598;28;20113;-75
2022/06/25 07:48:37;;;;;;;20.10;18.90;;;24.20;99.90;;;;;;4983656;28;20069;-75
2022/06/25 07:53:49;;;;;;;;;;;24.50;99.90;;;;;;4984323;28;20113;-75
2022/06/25 07:56:16;;;;;;;19.80;18.70;;;24.60;99.90;;;;;;4984660;28;19969;-73
2022/06/25 07:58:43;;;;;;;20.60;19.30;;;24.40;99.90;;;;;;4984469;28;20054;-75
2022/06/25 08:01:10;;;;;;;20.08;19.08;;;24.30;99.90;;;;;;4992851;28;20578;-75
2022/06/25 08:03:37;;;;;;;19.63;18.52;;;24.40;99.90;;;;;;4985001;28;20082;-74
2022/06/25 08:06:04;;;;;;;20.52;19.13;;;24.60;99.90;;;;;;4986179;28;20046;-75
2022/06/25 08:08:31;;;;;;;20.27;18.98;;;24.40;99.90;;;;;;5004109;28;20104;-75
2022/06/25 08:10:58;;;;;;;18.90;17.83;;;24.40;99.90;;;;;;4986721;28;20054;-74
2022/06/25 08:13:25;;;;;;;19.48;18.17;;;24.50;99.90;;;;;;4986263;28;20081;-74
2022/06/25 08:15:52;;;;;;;20.45;19.10;;;24.20;99.90;;;;;;5004044;28;20050;-74
2022/06/25 08:18:20;;;;;;;18.67;17.73;;;24.00;99.90;;;;;;5004637;28;20540;-74
2022/06/25 08:20:46;;;;;;;19.60;18.55;;;24.10;99.90;;;;;;5002708;28;20056;-74
2022/06/25 08:23:13;;;;;;;19.63;18.42;;;24.30;99.90;;;;;;5002277;28;20050;-74
2022/06/25 08:25:40;;;;;;;19.25;18.05;;;24.70;99.90;;;;;;5001445;28;20104;-74
2022/06/25 08:28:07;;;;;;;19.95;18.75;;;25.10;99.90;;;;;;5005631;28;20061;-74
2022/06/25 08:30:34;;;;;;;19.30;18.13;;;25.40;99.90;;;;;;4985865;28;20062;-74
2022/06/25 08:33:01;;;;;;;19.42;18.33;;;25.50;99.90;;;;;;5002492;28;20108;-74
2022/06/25 08:35:28;;;;;;;20.33;18.88;;;25.70;99.90;;;;;;5002314;28;20153;-75
2022/06/25 08:37:56;;;;;;;19.77;18.77;;;25.80;99.90;;;;;;4985513;28;20112;-74
2022/06/25 08:40:23;;;;;;;20.55;19.15;;;25.80;99.90;;;;;;4985398;28;20100;-74
2022/06/25 08:42:50;;;;;;;20.60;19.33;;;25.80;99.90;;;;;;5001868;28;20081;-74
2022/06/25 08:45:17;;;;;;;20.73;19.52;;;26.10;99.90;;;;;;4985600;28;20073;-74
2022/06/25 08:47:49;;;;;;;20.45;19.25;;;26.10;99.90;;;;;;4986567;28;20049;-74
2022/06/25 08:50:20;;;;;;;20.00;18.92;;;25.80;99.90;;;;;;5003513;28;20050;-75
2022/06/25 08:52:53;;;;;;;20.67;19.45;;;25.90;99.90;;;;;;5004597;28;20046;-74
2022/06/25 08:55:23;;;;;;;18.83;17.77;;;26.20;99.90;;;;;;4968413;28;20141;-74
2022/06/25 08:57:50;;;;;;;20.60;19.40;;;26.50;99.90;;;;;;4985684;28;20537;-74
2022/06/25 09:00:17;;;;;;;20.67;19.55;;;26.80;99.90;;;;;;5000565;28;20050;-73
2022/06/25 09:02:50;;;;;;;20.45;19.30;;;26.80;99.90;;;;;;4984146;28;20523;-74
2022/06/25 09:05:29;;;;;;;20.88;19.58;;;26.70;99.90;;;;;;4991782;28;20034;-74
2022/06/25 09:07:57;;;;;;;20.77;19.60;;;26.80;99.90;;;;;;4997968;28;20583;-73
2022/06/25 09:10:26;;;;;;;19.40;18.50;;;26.90;99.90;;;;;;5003590;28;20061;-74
2022/06/25 09:13:02;;;;;;;21.38;20.25;;;27.10;99.90;;;;;;4986039;28;20141;-74
2022/06/25 09:15:38;;;;;;;21.92;20.83;;;26.80;99.90;;;;;;4985514;28;20107;-75
2022/06/25 09:18:16;;;;;;;21.92;20.67;;;27.00;99.90;;;;;;4984510;28;20050;-75
2022/06/25 09:21:10;;;;;;;19.08;18.00;;;27.20;99.90;;;;;;4985171;28;20042;-74
2022/06/25 09:24:00;;;;;;;22.50;21.13;;;26.80;99.90;;;;;;5003363;28;20397;-74
2022/06/25 09:26:27;;;;;;;22.27;21.27;;;26.50;99.90;;;;;;5004519;28;20056;-74
2022/06/25 09:29:00;;;;;;;21.23;20.23;;;26.50;99.90;;;;;;5007008;28;20060;-74
2022/06/25 09:31:37;;;;;;;23.17;21.83;;;26.30;99.90;;;;;;5024454;28;20123;-74
2022/06/25 09:34:06;;;;;;;23.35;22.15;;;26.40;99.90;;;;;;4990482;28;20856;-74
2022/06/25 09:36:32;;;;;;;21.40;20.10;;;26.80;99.90;;;;;;5003208;28;20042;-73
2022/06/25 09:38:59;;;;;;;22.85;21.55;;;27.30;99.90;;;;;;4985656;28;20049;-74
2022/06/25 09:41:26;;;;;;;20.42;19.25;;;27.20;99.90;;;;;;5006256;28;20049;-75
2022/06/25 09:43:53;;;;;;;23.33;22.05;;;26.80;99.90;;;;;;5022878;28;20111;-74
2022/06/25 09:46:20;;;;;;;23.05;21.75;;;26.80;99.90;;;;;;5009204;28;20160;-74
2022/06/25 09:48:46;;;;;;;21.25;19.75;;;27.00;99.90;;;;;;5024950;28;20049;-74
2022/06/25 09:51:13;;;;;;;20.77;19.35;;;26.90;99.90;;;;;;5005975;28;20638;-75
2022/06/25 09:53:47;;;;;;;23.77;22.50;;;26.80;99.90;;;;;;5005923;28;20038;-75
2022/06/25 09:56:17;;;;;;;23.83;22.63;;;26.50;99.90;;;;;;5008353;28;20419;-75
2022/06/25 09:58:44;;;;;;;23.85;22.75;;;26.80;99.90;;;;;;5026725;28;20404;-75
2022/06/25 10:01:15;;;;;;;24.80;23.42;;;27.30;99.90;;;;;;5007793;28;20057;-75
2022/06/25 10:03:43;;;;;;;21.85;20.52;;;27.80;99.90;;;;;;5007197;28;20686;-75
2022/06/25 10:06:22;;;;;;;24.92;23.20;;;27.40;99.90;;;;;;5009926;28;20704;-75
2022/06/25 10:08:58;;;;;;;21.33;20.23;;;27.40;99.90;;;;;;5009162;28;20103;-74
2022/06/25 10:11:28;;;;;;;25.00;23.70;;;27.10;99.90;;;;;;5024846;28;20049;-75
2022/06/25 10:13:55;;;;;;;23.15;21.73;;;27.00;99.90;;;;;;5025940;28;20554;-75
2022/06/25 10:16:23;;;;;;;25.65;24.25;;;27.10;99.90;;;;;;5024584;28;20041;-74
2022/06/25 10:18:51;;;;;;;24.08;22.73;;;27.30;99.90;;;;;;5025776;28;20599;-75
2022/06/25 10:21:20;;;;;;;22.30;20.98;;;27.50;99.90;;;;;;5027046;28;20049;-74
2022/06/25 10:23:53;;;;;;;21.05;20.02;;;27.90;99.90;;;;;;5005528;28;20139;-74
2022/06/25 10:26:20;;;;;;;22.38;21.27;;;27.70;99.90;;;;;;5005914;28;20064;-74
2022/06/25 10:28:48;;;;;;;26.38;24.98;;;27.30;99.90;;;;;;5024167;28;20041;-74
2022/06/25 10:31:17;;;;;;;25.38;24.05;;;27.10;99.90;;;;;;5023884;28;20096;-74
2022/06/25 10:34:02;;;;;;;26.95;25.55;;;27.20;99.90;;;;;;5023424;28;20047;-74
2022/06/25 10:36:40;;;;;;;25.83;24.63;;;27.40;99.90;;;;;;5006112;28;20553;-73
2022/06/25 10:39:27;;;;;;;22.85;21.85;;;27.90;99.90;;;;;;4990453;28;20045;-73
2022/06/25 10:45:04;;;;;;;24.17;22.92;;;27.40;99.90;;;;;;5023273;28;20091;-73
2022/06/25 10:47:57;;;;;;;22.50;21.50;;;26.90;99.90;;;;;;5024506;28;20555;-74
2022/06/25 10:50:25;;;;;;;23.90;22.73;;;26.50;99.90;;;;;;5008601;28;20059;-74
2022/06/25 10:53:07;;;;;;;26.27;25.00;;;26.20;99.90;;;;;;5031776;28;20044;-74
2022/06/25 10:55:41;;;;;;;26.08;24.58;;;26.20;99.90;;;;;;5041946;28;20506;-74
2022/06/25 10:58:13;;;;;;;24.23;22.83;;;26.90;99.90;;;;;;5042271;28;20072;-73
2022/06/25 11:01:01;;;;;;;27.85;26.45;;;27.30;99.90;;;;;;5045835;28;20049;-75
2022/06/25 11:03:27;;;;;;;27.52;26.23;;;27.60;99.90;;;;;;5007884;28;20044;-74
2022/06/25 11:06:00;;;;;;;28.35;26.65;;;27.90;99.90;;;;;;5025400;28;20566;-75
2022/06/25 11:08:35;;;;;;;26.40;25.00;;;28.10;99.90;;;;;;5026694;28;20459;-74
2022/06/25 11:11:03;;;;;;;;;;;28.40;99.90;;;;;;5009206;28;20049;-74
2022/06/25 11:13:30;;;;;;;24.42;23.05;;;28.10;99.90;;;;;;5025644;28;19921;-74
2022/06/25 11:15:57;;;;;;;26.63;25.27;;;27.80;99.90;;;;;;5025246;28;20641;-74
2022/06/25 11:18:24;;;;;;;27.50;26.08;;;27.70;99.90;;;;;;5046073;28;20618;-74
2022/06/25 11:20:51;;;;;;;26.95;25.48;;;27.40;99.90;;;;;;5042371;28;20082;-74
2022/06/25 11:23:18;;;;;;;27.33;25.92;;;27.10;99.90;;;;;;5042122;28;20135;-73
2022/06/25 11:28:48;;;;;;;27.45;25.95;;;26.70;99.90;;;;;;5042951;28;20072;-74
2022/06/25 11:31:16;;;;;;;28.97;27.40;;;26.60;99.90;;;;;;5043395;28;20083;-75
2022/06/25 11:33:43;;;;;;;28.58;27.02;;;26.30;99.90;;;;;;5042965;28;20416;-74
2022/06/25 11:36:11;;;;;;;28.63;27.13;;;26.10;99.90;;;;;;5025030;28;20045;-75
2022/06/25 11:38:39;;;;;;;28.83;27.33;;;25.80;99.90;;;;;;5043949;28;20049;-75
2022/06/25 11:41:07;;;;;;;29.40;28.00;;;25.70;99.90;;;;;;5043555;28;20617;-79
2022/06/25 11:43:36;;;;;;;28.13;26.63;;;25.50;99.90;;;;;;5043663;28;20045;-73
2022/06/25 11:46:03;;;;;;;27.08;25.65;;;25.20;99.90;;;;;;5043513;28;20041;-73
2022/06/25 11:48:34;;;;;;;27.55;25.98;;;25.10;99.90;;;;;;5043427;28;20049;-73
2022/06/25 11:51:03;;;;;;;26.95;25.55;;;24.70;99.90;;;;;;5042937;28;20195;-74
2022/06/25 11:53:35;;;;;;;26.95;25.65;;;24.40;99.90;;;;;;5042519;28;20931;-73
2022/06/25 11:56:04;;;;;;;27.13;25.65;;;24.30;99.90;;;;;;5024561;28;20064;-73
2022/06/25 11:58:34;;;;;;;26.45;24.90;;;24.40;99.90;;;;;;5025186;28;20491;-73
2022/06/25 12:01:04;;;;;;;26.42;24.98;;;24.60;99.90;;;;;;5025188;28;20049;-73
2022/06/25 12:03:31;;;;;;;26.33;25.10;;;24.60;99.90;;;;;;5024098;28;20064;-73
2022/06/25 12:06:01;;;;;;;27.77;26.30;;;24.30;99.90;;;;;;5042360;28;20429;-73
2022/06/25 12:08:28;;;;;;;27.15;25.85;;;24.20;99.90;;;;;;5042517;28;20049;-73
2022/06/25 12:10:57;;;;;;;27.08;25.42;;;24.30;99.90;;;;;;5024563;28;20065;-73
2022/06/25 12:13:29;;;;;;;26.38;25.17;;;24.30;99.90;;;;;;5042255;28;20049;-73
2022/06/25 12:16:04;;;;;;;27.23;25.67;;;24.30;99.90;;;;;;5041946;28;20045;-73
2022/06/25 12:18:40;;;;;;;25.63;24.33;;;24.50;99.90;;;;;;5042527;28;20136;-73
2022/06/25 12:21:09;;;;;;;27.00;25.40;;;24.80;99.90;;;;;;5041115;28;20090;-73
2022/06/25 12:23:48;;;;;;;26.00;24.70;;;24.60;99.90;;;;;;5043790;28;20083;-73
2022/06/25 12:26:29;;;;;;;25.63;24.08;;;24.80;99.90;;;;;;5042590;28;20048;-73
2022/06/25 12:29:11;;;;;;;24.77;23.67;;;24.90;99.90;;;;;;5044101;28;20537;-74
2022/06/25 12:31:39;;;;;;;24.77;23.58;;;24.90;99.90;;;;;;5042388;28;20213;-72
2022/06/25 12:34:07;;;;;;;25.08;23.85;;;25.00;99.90;;;;;;5042505;28;20071;-74
2022/06/25 12:36:36;;;;;;;25.05;23.67;;;25.00;99.90;;;;;;5023875;28;20107;-73
2022/06/25 12:39:22;;;;;;;24.75;23.65;;;24.70;99.90;;;;;;5043023;28;20041;-73
2022/06/25 12:41:49;;;;;;;24.73;23.50;;;24.80;99.90;;;;;;5024102;28;20107;-73
2022/06/25 12:44:17;;;;;;;26.58;24.92;;;24.80;99.90;;;;;;5074297;22;20053;-74
2022/06/25 12:46:59;;;;;;;27.20;25.90;;;24.90;99.90;;;;;;5028335;28;20501;-75
2022/06/25 12:49:37;;;;;;;26.20;24.90;;;25.10;99.90;;;;;;5008501;28;20449;-77
2022/06/25 12:52:04;;;;;;;26.77;25.42;;;25.20;99.90;;;;;;5027085;28;20041;-75
2022/06/25 12:54:43;;;;;;;26.40;25.13;;;25.40;99.90;;;;;;5048062;28;20347;-77
2022/06/25 12:57:16;;;;;;;24.67;23.48;;;25.80;99.90;;;;;;5048539;28;20052;-77
2022/06/25 12:59:44;;;;;;;28.65;27.10;;;26.10;99.90;;;;;;5049013;28;20086;-77
2022/06/25 13:02:11;;;;;;;27.27;25.92;;;26.30;99.90;;;;;;5045941;28;20052;-76
2022/06/25 13:04:39;;;;;;;26.40;24.88;;;26.30;99.90;;;;;;5028228;28;20156;-77
2022/06/25 13:07:06;;;;;;;25.42;24.10;;;26.60;99.90;;;;;;5027729;28;20118;-78
2022/06/25 13:09:37;;;;;;;25.10;23.65;;;26.90;99.90;;;;;;5043510;28;20053;-77
2022/06/25 13:12:04;;;;;;;26.27;24.73;;;27.00;99.90;;;;;;5027605;28;20102;-77
2022/06/25 13:14:32;;;;;;;23.80;22.60;;;27.10;99.90;;;;;;5062534;28;20040;-76
2022/06/25 13:16:59;;;;;;;24.92;23.42;;;26.80;99.90;;;;;;5043435;28;20072;-77